sensor_id;sensor_type;location;lat;lon;timestamp;P1;durP1;ratioP1;P2;durP2;ratioP2
66185;SDS011;58178;49.552;27.922;2022-10-31T00:02:08;31.67;;;14.52;;
66185;SDS011;58178;49.552;27.922;2022-10-31T00:04:33;23.55;;;14.23;;
66185;SDS011;58178;49.552;27.922;2022-10-31T00:06:59;28.02;;;14.63;;
66185;SDS011;58178;49.552;27.922;2022-10-31T00:09:25;28.25;;;14.30;;
66185;SDS011;58178;49.552;27.922;2022-10-31T00:11:50;22.98;;;13.85;;
66185;SDS011;58178;49.552;27.922;2022-10-31T00:14:16;32.25;;;14.65;;
66185;SDS011;58178;49.552;27.922;2022-10-31T00:16:42;24.63;;;13.98;;
66185;SDS011;58178;49.552;27.922;2022-10-31T00:19:09;23.23;;;13.18;;
66185;SDS011;58178;49.552;27.922;2022-10-31T00:21:35;22.98;;;13.77;;
66185;SDS011;58178;49.552;27.922;2022-10-31T00:24:03;25.13;;;13.57;;
66185;SDS011;58178;49.552;27.922;2022-10-31T00:29:14;21.15;;;12.45;;
66185;SDS011;58178;49.552;27.922;2022-10-31T00:31:40;19.27;;;12.82;;
66185;SDS011;58178;49.552;27.922;2022-10-31T00:34:05;17.60;;;12.55;;
66185;SDS011;58178;49.552;27.922;2022-10-31T00:36:31;19.38;;;12.52;;
66185;SDS011;58178;49.552;27.922;2022-10-31T00:38:57;19.25;;;11.68;;
66185;SDS011;58178;49.552;27.922;2022-10-31T00:41:23;26.25;;;13.00;;
66185;SDS011;58178;49.552;27.922;2022-10-31T00:43:49;21.45;;;13.10;;
66185;SDS011;58178;49.552;27.922;2022-10-31T00:46:15;24.08;;;12.15;;
66185;SDS011;58178;49.552;27.922;2022-10-31T00:48:41;25.73;;;13.02;;
66185;SDS011;58178;49.552;27.922;2022-10-31T00:51:07;20.88;;;12.20;;
66185;SDS011;58178;49.552;27.922;2022-10-31T00:53:33;23.00;;;13.07;;
66185;SDS011;58178;49.552;27.922;2022-10-31T00:55:59;23.40;;;12.48;;
66185;SDS011;58178;49.552;27.922;2022-10-31T00:58:25;23.77;;;13.35;;
66185;SDS011;58178;49.552;27.922;2022-10-31T01:00:50;23.25;;;12.52;;
66185;SDS011;58178;49.552;27.922;2022-10-31T01:03:20;28.10;;;13.30;;
66185;SDS011;58178;49.552;27.922;2022-10-31T01:06:10;28.90;;;13.82;;
66185;SDS011;58178;49.552;27.922;2022-10-31T01:08:37;21.88;;;14.25;;
66185;SDS011;58178;49.552;27.922;2022-10-31T01:11:08;30.00;;;13.93;;
66185;SDS011;58178;49.552;27.922;2022-10-31T01:13:37;25.60;;;13.18;;
66185;SDS011;58178;49.552;27.922;2022-10-31T01:16:03;27.80;;;13.82;;
66185;SDS011;58178;49.552;27.922;2022-10-31T01:18:30;23.02;;;14.25;;
66185;SDS011;58178;49.552;27.922;2022-10-31T01:23:40;26.35;;;14.43;;
66185;SDS011;58178;49.552;27.922;2022-10-31T01:28:39;25.00;;;13.20;;
66185;SDS011;58178;49.552;27.922;2022-10-31T01:31:09;30.33;;;13.23;;
66185;SDS011;58178;49.552;27.922;2022-10-31T01:33:35;23.33;;;13.07;;
66185;SDS011;58178;49.552;27.922;2022-10-31T01:36:01;24.25;;;13.20;;
66185;SDS011;58178;49.552;27.922;2022-10-31T01:41:42;22.25;;;13.52;;
66185;SDS011;58178;49.552;27.922;2022-10-31T01:47:08;23.08;;;13.13;;
66185;SDS011;58178;49.552;27.922;2022-10-31T01:53:01;19.27;;;12.57;;
66185;SDS011;58178;49.552;27.922;2022-10-31T01:55:31;23.55;;;13.07;;
66185;SDS011;58178;49.552;27.922;2022-10-31T01:58:04;21.20;;;12.60;;
66185;SDS011;58178;49.552;27.922;2022-10-31T02:00:33;23.65;;;13.98;;
66185;SDS011;58178;49.552;27.922;2022-10-31T02:02:59;21.73;;;14.60;;
66185;SDS011;58178;49.552;27.922;2022-10-31T02:05:26;19.85;;;13.30;;
66185;SDS011;58178;49.552;27.922;2022-10-31T02:10:33;23.45;;;13.73;;
66185;SDS011;58178;49.552;27.922;2022-10-31T02:13:00;24.30;;;14.10;;
66185;SDS011;58178;49.552;27.922;2022-10-31T02:15:28;27.00;;;13.50;;
66185;SDS011;58178;49.552;27.922;2022-10-31T02:17:56;22.02;;;13.75;;
66185;SDS011;58178;49.552;27.922;2022-10-31T02:20:22;28.70;;;14.50;;
66185;SDS011;58178;49.552;27.922;2022-10-31T02:26:03;23.42;;;12.20;;
66185;SDS011;58178;49.552;27.922;2022-10-31T02:28:53;22.52;;;12.80;;
66185;SDS011;58178;49.552;27.922;2022-10-31T02:35:09;17.23;;;12.48;;
66185;SDS011;58178;49.552;27.922;2022-10-31T02:37:27;23.27;;;13.35;;
66185;SDS011;58178;49.552;27.922;2022-10-31T02:45:52;24.55;;;13.65;;
66185;SDS011;58178;49.552;27.922;2022-10-31T02:48:41;36.08;;;15.00;;
66185;SDS011;58178;49.552;27.922;2022-10-31T02:51:08;24.63;;;14.63;;
66185;SDS011;58178;49.552;27.922;2022-10-31T02:53:36;27.33;;;15.05;;
66185;SDS011;58178;49.552;27.922;2022-10-31T02:56:10;21.83;;;13.38;;
66185;SDS011;58178;49.552;27.922;2022-10-31T02:58:51;20.27;;;13.32;;
66185;SDS011;58178;49.552;27.922;2022-10-31T03:07:06;20.15;;;13.82;;
66185;SDS011;58178;49.552;27.922;2022-10-31T03:10:02;22.58;;;13.20;;
66185;SDS011;58178;49.552;27.922;2022-10-31T03:23:46;20.77;;;12.63;;
66185;SDS011;58178;49.552;27.922;2022-10-31T03:26:12;21.88;;;12.70;;
66185;SDS011;58178;49.552;27.922;2022-10-31T03:29:01;16.50;;;11.82;;
66185;SDS011;58178;49.552;27.922;2022-10-31T03:31:28;22.17;;;11.95;;
66185;SDS011;58178;49.552;27.922;2022-10-31T03:39:08;25.48;;;14.30;;
66185;SDS011;58178;49.552;27.922;2022-10-31T03:41:38;27.95;;;13.18;;
66185;SDS011;58178;49.552;27.922;2022-10-31T03:44:17;21.92;;;12.65;;
66185;SDS011;58178;49.552;27.922;2022-10-31T04:02:26;24.35;;;14.50;;
66185;SDS011;58178;49.552;27.922;2022-10-31T04:04:54;23.98;;;13.50;;
66185;SDS011;58178;49.552;27.922;2022-10-31T04:07:20;25.42;;;14.30;;
66185;SDS011;58178;49.552;27.922;2022-10-31T04:09:48;25.52;;;12.82;;
66185;SDS011;58178;49.552;27.922;2022-10-31T04:12:15;21.45;;;12.15;;
66185;SDS011;58178;49.552;27.922;2022-10-31T08:11:52;22.63;;;10.63;;
66185;SDS011;58178;49.552;27.922;2022-10-31T08:29:43;23.23;;;10.20;;
66185;SDS011;58178;49.552;27.922;2022-10-31T08:34:53;20.05;;;10.70;;
66185;SDS011;58178;49.552;27.922;2022-10-31T08:37:19;18.05;;;10.75;;
66185;SDS011;58178;49.552;27.922;2022-10-31T08:39:45;22.30;;;11.30;;
66185;SDS011;58178;49.552;27.922;2022-10-31T08:42:11;16.83;;;9.85;;
66185;SDS011;58178;49.552;27.922;2022-10-31T08:44:38;25.75;;;11.95;;
66185;SDS011;58178;49.552;27.922;2022-10-31T08:47:04;21.83;;;12.88;;
66185;SDS011;58178;49.552;27.922;2022-10-31T08:49:30;25.70;;;13.70;;
66185;SDS011;58178;49.552;27.922;2022-10-31T08:51:56;22.55;;;13.43;;
66185;SDS011;58178;49.552;27.922;2022-10-31T08:54:22;30.05;;;13.63;;
66185;SDS011;58178;49.552;27.922;2022-10-31T08:56:52;22.85;;;12.88;;
66185;SDS011;58178;49.552;27.922;2022-10-31T08:59:20;27.10;;;13.43;;
66185;SDS011;58178;49.552;27.922;2022-10-31T09:01:46;23.98;;;14.30;;
66185;SDS011;58178;49.552;27.922;2022-10-31T09:04:12;30.00;;;14.02;;
66185;SDS011;58178;49.552;27.922;2022-10-31T09:06:38;26.42;;;13.55;;
66185;SDS011;58178;49.552;27.922;2022-10-31T09:09:03;27.38;;;14.63;;
66185;SDS011;58178;49.552;27.922;2022-10-31T09:11:29;22.77;;;13.35;;
66185;SDS011;58178;49.552;27.922;2022-10-31T09:13:56;24.65;;;14.20;;
66185;SDS011;58178;49.552;27.922;2022-10-31T09:16:21;21.73;;;13.98;;
66185;SDS011;58178;49.552;27.922;2022-10-31T09:18:47;23.38;;;13.18;;
66185;SDS011;58178;49.552;27.922;2022-10-31T09:21:13;22.67;;;13.32;;
66185;SDS011;58178;49.552;27.922;2022-10-31T09:23:41;30.42;;;13.93;;
66185;SDS011;58178;49.552;27.922;2022-10-31T09:26:07;26.67;;;15.30;;
66185;SDS011;58178;49.552;27.922;2022-10-31T09:28:35;29.10;;;15.85;;
66185;SDS011;58178;49.552;27.922;2022-10-31T09:31:01;22.77;;;14.40;;
66185;SDS011;58178;49.552;27.922;2022-10-31T09:33:27;26.95;;;14.32;;
66185;SDS011;58178;49.552;27.922;2022-10-31T09:35:52;24.98;;;13.60;;
66185;SDS011;58178;49.552;27.922;2022-10-31T09:38:19;30.95;;;14.43;;
66185;SDS011;58178;49.552;27.922;2022-10-31T09:40:50;25.77;;;15.93;;
66185;SDS011;58178;49.552;27.922;2022-10-31T09:51:19;28.20;;;16.10;;
66185;SDS011;58178;49.552;27.922;2022-10-31T09:53:53;25.38;;;15.38;;
66185;SDS011;58178;49.552;27.922;2022-10-31T09:56:30;24.08;;;14.35;;
66185;SDS011;58178;49.552;27.922;2022-10-31T09:58:57;25.77;;;13.60;;
66185;SDS011;58178;49.552;27.922;2022-10-31T10:04:29;26.60;;;14.52;;
66185;SDS011;58178;49.552;27.922;2022-10-31T10:07:03;20.38;;;13.05;;
66185;SDS011;58178;49.552;27.922;2022-10-31T10:09:52;25.45;;;13.00;;
66185;SDS011;58178;49.552;27.922;2022-10-31T10:12:35;32.70;;;13.60;;
66185;SDS011;58178;49.552;27.922;2022-10-31T10:26:42;24.33;;;12.60;;
66185;SDS011;58178;49.552;27.922;2022-10-31T10:29:21;23.13;;;12.63;;
66185;SDS011;58178;49.552;27.922;2022-10-31T10:31:50;22.30;;;12.38;;
66185;SDS011;58178;49.552;27.922;2022-10-31T10:39:23;29.10;;;11.98;;
66185;SDS011;58178;49.552;27.922;2022-10-31T10:41:50;20.65;;;12.25;;
66185;SDS011;58178;49.552;27.922;2022-10-31T10:44:38;22.85;;;12.25;;
66185;SDS011;58178;49.552;27.922;2022-10-31T10:47:24;21.83;;;12.30;;
66185;SDS011;58178;49.552;27.922;2022-10-31T10:50:12;19.30;;;11.85;;
66185;SDS011;58178;49.552;27.922;2022-10-31T10:52:50;20.67;;;10.60;;
66185;SDS011;58178;49.552;27.922;2022-10-31T11:00:26;20.17;;;10.90;;
66185;SDS011;58178;49.552;27.922;2022-10-31T11:02:56;21.55;;;11.57;;
66185;SDS011;58178;49.552;27.922;2022-10-31T11:05:33;24.75;;;11.50;;
66185;SDS011;58178;49.552;27.922;2022-10-31T11:07:59;17.20;;;10.93;;
66185;SDS011;58178;49.552;27.922;2022-10-31T11:10:25;24.98;;;11.30;;
66185;SDS011;58178;49.552;27.922;2022-10-31T11:12:59;22.63;;;11.68;;
66185;SDS011;58178;49.552;27.922;2022-10-31T11:15:36;21.35;;;11.93;;
66185;SDS011;58178;49.552;27.922;2022-10-31T11:18:04;26.95;;;11.52;;
66185;SDS011;58178;49.552;27.922;2022-10-31T11:20:34;19.80;;;10.88;;
66185;SDS011;58178;49.552;27.922;2022-10-31T11:25:50;17.10;;;9.90;;
66185;SDS011;58178;49.552;27.922;2022-10-31T11:28:19;21.20;;;10.05;;
66185;SDS011;58178;49.552;27.922;2022-10-31T11:30:46;19.83;;;9.57;;
66185;SDS011;58178;49.552;27.922;2022-10-31T11:35:55;17.05;;;9.60;;
66185;SDS011;58178;49.552;27.922;2022-10-31T11:38:23;15.93;;;9.15;;
66185;SDS011;58178;49.552;27.922;2022-10-31T11:40:56;22.50;;;8.57;;
66185;SDS011;58178;49.552;27.922;2022-10-31T11:43:23;19.80;;;8.23;;
66185;SDS011;58178;49.552;27.922;2022-10-31T11:45:49;15.65;;;7.97;;
66185;SDS011;58178;49.552;27.922;2022-10-31T11:48:20;21.45;;;8.73;;
66185;SDS011;58178;49.552;27.922;2022-10-31T11:50:48;15.68;;;7.88;;
66185;SDS011;58178;49.552;27.922;2022-10-31T11:53:28;18.42;;;8.15;;
66185;SDS011;58178;49.552;27.922;2022-10-31T11:58:35;17.23;;;7.20;;
66185;SDS011;58178;49.552;27.922;2022-10-31T12:01:01;16.63;;;7.43;;
66185;SDS011;58178;49.552;27.922;2022-10-31T12:03:37;18.60;;;7.47;;
66185;SDS011;58178;49.552;27.922;2022-10-31T12:06:13;14.65;;;6.55;;
66185;SDS011;58178;49.552;27.922;2022-10-31T12:08:47;16.67;;;7.53;;
66185;SDS011;58178;49.552;27.922;2022-10-31T12:14:03;22.67;;;7.80;;
66185;SDS011;58178;49.552;27.922;2022-10-31T12:17:04;21.65;;;7.45;;
66185;SDS011;58178;49.552;27.922;2022-10-31T12:22:47;19.60;;;7.35;;
66185;SDS011;58178;49.552;27.922;2022-10-31T12:25:36;20.48;;;6.93;;
66185;SDS011;58178;49.552;27.922;2022-10-31T12:33:33;15.75;;;6.47;;
66185;SDS011;58178;49.552;27.922;2022-10-31T12:41:36;16.55;;;6.40;;
66185;SDS011;58178;49.552;27.922;2022-10-31T12:47:18;13.35;;;6.25;;
66185;SDS011;58178;49.552;27.922;2022-10-31T12:56:15;17.92;;;6.07;;
66185;SDS011;58178;49.552;27.922;2022-10-31T12:59:00;18.00;;;6.40;;
66185;SDS011;58178;49.552;27.922;2022-10-31T13:01:53;15.35;;;6.53;;
66185;SDS011;58178;49.552;27.922;2022-10-31T13:04:30;13.60;;;5.95;;
66185;SDS011;58178;49.552;27.922;2022-10-31T13:07:02;13.65;;;6.65;;
66185;SDS011;58178;49.552;27.922;2022-10-31T13:09:56;14.32;;;6.50;;
66185;SDS011;58178;49.552;27.922;2022-10-31T13:12:19;17.92;;;6.63;;
66185;SDS011;58178;49.552;27.922;2022-10-31T13:14:48;17.33;;;6.70;;
66185;SDS011;58178;49.552;27.922;2022-10-31T13:19:57;17.42;;;6.82;;
66185;SDS011;58178;49.552;27.922;2022-10-31T13:22:38;19.90;;;7.85;;
66185;SDS011;58178;49.552;27.922;2022-10-31T13:27:37;19.88;;;7.88;;
66185;SDS011;58178;49.552;27.922;2022-10-31T13:30:13;26.98;;;7.75;;
66185;SDS011;58178;49.552;27.922;2022-10-31T13:32:49;14.98;;;7.68;;
66185;SDS011;58178;49.552;27.922;2022-10-31T13:35:23;15.98;;;6.38;;
66185;SDS011;58178;49.552;27.922;2022-10-31T13:37:57;13.88;;;7.72;;
66185;SDS011;58178;49.552;27.922;2022-10-31T13:43:32;20.55;;;8.32;;
66185;SDS011;58178;49.552;27.922;2022-10-31T13:46:01;16.75;;;8.48;;
66185;SDS011;58178;49.552;27.922;2022-10-31T13:48:46;17.90;;;8.13;;
66185;SDS011;58178;49.552;27.922;2022-10-31T13:51:11;23.98;;;8.70;;
66185;SDS011;58178;49.552;27.922;2022-10-31T13:53:42;14.75;;;8.13;;
66185;SDS011;58178;49.552;27.922;2022-10-31T13:56:20;21.90;;;9.05;;
66185;SDS011;58178;49.552;27.922;2022-10-31T14:01:35;16.27;;;8.27;;
66185;SDS011;58178;49.552;27.922;2022-10-31T14:06:43;19.50;;;9.25;;
66185;SDS011;58178;49.552;27.922;2022-10-31T14:13:02;19.35;;;8.15;;
66185;SDS011;58178;49.552;27.922;2022-10-31T14:17:52;15.30;;;7.68;;
66185;SDS011;58178;49.552;27.922;2022-10-31T14:20:23;22.30;;;8.32;;
66185;SDS011;58178;49.552;27.922;2022-10-31T14:23:45;24.67;;;9.80;;
66185;SDS011;58178;49.552;27.922;2022-10-31T14:29:00;21.15;;;8.98;;
66185;SDS011;58178;49.552;27.922;2022-10-31T14:39:18;16.77;;;7.40;;
66185;SDS011;58178;49.552;27.922;2022-10-31T14:44:38;14.95;;;7.47;;
66185;SDS011;58178;49.552;27.922;2022-10-31T14:52:22;16.70;;;7.25;;
66185;SDS011;58178;49.552;27.922;2022-10-31T14:54:50;14.80;;;6.57;;
66185;SDS011;58178;49.552;27.922;2022-10-31T14:57:22;23.73;;;7.28;;
66185;SDS011;58178;49.552;27.922;2022-10-31T15:00:12;19.58;;;7.00;;
66185;SDS011;58178;49.552;27.922;2022-10-31T15:02:58;17.73;;;7.33;;
66185;SDS011;58178;49.552;27.922;2022-10-31T15:05:35;20.40;;;7.13;;
66185;SDS011;58178;49.552;27.922;2022-10-31T15:11:02;15.23;;;7.13;;
66185;SDS011;58178;49.552;27.922;2022-10-31T15:13:44;18.70;;;7.43;;
66185;SDS011;58178;49.552;27.922;2022-10-31T15:16:15;18.67;;;7.20;;
66185;SDS011;58178;49.552;27.922;2022-10-31T15:19:03;15.52;;;6.35;;
66185;SDS011;58178;49.552;27.922;2022-10-31T15:21:30;16.95;;;6.90;;
66185;SDS011;58178;49.552;27.922;2022-10-31T15:23:56;18.08;;;6.80;;
66185;SDS011;58178;49.552;27.922;2022-10-31T15:26:26;19.17;;;7.13;;
66185;SDS011;58178;49.552;27.922;2022-10-31T15:29:10;16.23;;;7.00;;
66185;SDS011;58178;49.552;27.922;2022-10-31T15:31:37;20.40;;;7.50;;
66185;SDS011;58178;49.552;27.922;2022-10-31T15:34:05;16.10;;;6.35;;
66185;SDS011;58178;49.552;27.922;2022-10-31T15:36:37;21.42;;;7.25;;
66185;SDS011;58178;49.552;27.922;2022-10-31T15:39:03;22.63;;;8.00;;
66185;SDS011;58178;49.552;27.922;2022-10-31T15:41:39;20.80;;;8.07;;
66185;SDS011;58178;49.552;27.922;2022-10-31T15:44:16;17.33;;;7.30;;
66185;SDS011;58178;49.552;27.922;2022-10-31T15:47:20;15.85;;;7.00;;
66185;SDS011;58178;49.552;27.922;2022-10-31T15:49:53;22.95;;;7.32;;
66185;SDS011;58178;49.552;27.922;2022-10-31T15:54:57;21.15;;;8.18;;
66185;SDS011;58178;49.552;27.922;2022-10-31T15:57:25;21.48;;;8.15;;
66185;SDS011;58178;49.552;27.922;2022-10-31T15:59:53;18.90;;;6.85;;
66185;SDS011;58178;49.552;27.922;2022-10-31T16:02:21;22.98;;;8.57;;
66185;SDS011;58178;49.552;27.922;2022-10-31T16:04:58;17.25;;;8.02;;
66185;SDS011;58178;49.552;27.922;2022-10-31T16:07:26;21.80;;;8.35;;
66185;SDS011;58178;49.552;27.922;2022-10-31T16:09:54;17.98;;;7.18;;
66185;SDS011;58178;49.552;27.922;2022-10-31T16:12:33;22.45;;;7.65;;
66185;SDS011;58178;49.552;27.922;2022-10-31T16:15:03;20.08;;;6.60;;
66185;SDS011;58178;49.552;27.922;2022-10-31T16:17:32;18.75;;;5.80;;
66185;SDS011;58178;49.552;27.922;2022-10-31T16:20:18;17.35;;;4.80;;
66185;SDS011;58178;49.552;27.922;2022-10-31T16:22:58;13.38;;;5.00;;
66185;SDS011;58178;49.552;27.922;2022-10-31T16:25:44;10.02;;;3.85;;
66185;SDS011;58178;49.552;27.922;2022-10-31T16:28:29;16.15;;;4.32;;
66185;SDS011;58178;49.552;27.922;2022-10-31T16:31:26;12.23;;;3.80;;
66185;SDS011;58178;49.552;27.922;2022-10-31T16:34:19;10.50;;;3.03;;
66185;SDS011;58178;49.552;27.922;2022-10-31T16:36:55;12.95;;;2.97;;
66185;SDS011;58178;49.552;27.922;2022-10-31T16:39:24;8.82;;;2.72;;
66185;SDS011;58178;49.552;27.922;2022-10-31T16:41:54;8.02;;;3.05;;
66185;SDS011;58178;49.552;27.922;2022-10-31T16:44:24;10.68;;;2.65;;
66185;SDS011;58178;49.552;27.922;2022-10-31T16:49:32;10.13;;;3.53;;
66185;SDS011;58178;49.552;27.922;2022-10-31T16:51:58;9.68;;;3.17;;
66185;SDS011;58178;49.552;27.922;2022-10-31T16:54:28;9.93;;;2.92;;
66185;SDS011;58178;49.552;27.922;2022-10-31T16:56:54;9.05;;;2.97;;
66185;SDS011;58178;49.552;27.922;2022-10-31T16:59:19;12.43;;;3.70;;
66185;SDS011;58178;49.552;27.922;2022-10-31T17:01:47;10.43;;;3.22;;
66185;SDS011;58178;49.552;27.922;2022-10-31T17:04:14;9.15;;;2.92;;
66185;SDS011;58178;49.552;27.922;2022-10-31T17:06:40;9.55;;;3.30;;
66185;SDS011;58178;49.552;27.922;2022-10-31T17:09:06;12.00;;;3.25;;
66185;SDS011;58178;49.552;27.922;2022-10-31T17:11:32;7.20;;;3.17;;
66185;SDS011;58178;49.552;27.922;2022-10-31T17:14:01;8.38;;;2.90;;
66185;SDS011;58178;49.552;27.922;2022-10-31T17:16:28;12.15;;;3.30;;
66185;SDS011;58178;49.552;27.922;2022-10-31T17:18:56;9.75;;;3.22;;
66185;SDS011;58178;49.552;27.922;2022-10-31T17:21:28;9.25;;;3.80;;
66185;SDS011;58178;49.552;27.922;2022-10-31T17:23:54;15.32;;;4.32;;
66185;SDS011;58178;49.552;27.922;2022-10-31T17:26:57;11.23;;;4.18;;
66185;SDS011;58178;49.552;27.922;2022-10-31T17:29:26;11.07;;;3.80;;
66185;SDS011;58178;49.552;27.922;2022-10-31T17:32:36;11.48;;;4.53;;
66185;SDS011;58178;49.552;27.922;2022-10-31T17:35:10;10.93;;;3.97;;
66185;SDS011;58178;49.552;27.922;2022-10-31T17:38:08;10.88;;;4.32;;
66185;SDS011;58178;49.552;27.922;2022-10-31T17:40:46;11.77;;;4.22;;
66185;SDS011;58178;49.552;27.922;2022-10-31T17:43:18;8.93;;;4.53;;
66185;SDS011;58178;49.552;27.922;2022-10-31T17:45:44;9.93;;;4.25;;
66185;SDS011;58178;49.552;27.922;2022-10-31T17:48:12;13.48;;;5.38;;
66185;SDS011;58178;49.552;27.922;2022-10-31T17:50:38;7.38;;;3.50;;
66185;SDS011;58178;49.552;27.922;2022-10-31T17:53:04;12.80;;;3.85;;
66185;SDS011;58178;49.552;27.922;2022-10-31T17:55:30;11.88;;;3.90;;
66185;SDS011;58178;49.552;27.922;2022-10-31T17:57:56;7.63;;;3.58;;
66185;SDS011;58178;49.552;27.922;2022-10-31T18:00:22;11.35;;;4.00;;
66185;SDS011;58178;49.552;27.922;2022-10-31T18:02:49;14.07;;;3.58;;
66185;SDS011;58178;49.552;27.922;2022-10-31T18:05:15;9.85;;;3.72;;
66185;SDS011;58178;49.552;27.922;2022-10-31T18:07:41;9.15;;;3.45;;
66185;SDS011;58178;49.552;27.922;2022-10-31T18:10:07;10.80;;;3.20;;
66185;SDS011;58178;49.552;27.922;2022-10-31T18:12:36;10.43;;;3.65;;
66185;SDS011;58178;49.552;27.922;2022-10-31T18:15:02;12.93;;;4.40;;
66185;SDS011;58178;49.552;27.922;2022-10-31T18:17:28;13.88;;;3.95;;
66185;SDS011;58178;49.552;27.922;2022-10-31T18:19:54;7.70;;;4.03;;
66185;SDS011;58178;49.552;27.922;2022-10-31T18:22:20;11.38;;;3.97;;
66185;SDS011;58178;49.552;27.922;2022-10-31T18:24:46;14.60;;;4.00;;
66185;SDS011;58178;49.552;27.922;2022-10-31T18:27:11;11.70;;;3.85;;
66185;SDS011;58178;49.552;27.922;2022-10-31T18:29:37;12.77;;;4.05;;
66185;SDS011;58178;49.552;27.922;2022-10-31T18:32:03;12.15;;;3.80;;
66185;SDS011;58178;49.552;27.922;2022-10-31T18:34:30;13.07;;;3.85;;
66185;SDS011;58178;49.552;27.922;2022-10-31T18:36:56;9.02;;;3.50;;
66185;SDS011;58178;49.552;27.922;2022-10-31T18:39:22;14.00;;;4.30;;
66185;SDS011;58178;49.552;27.922;2022-10-31T18:41:48;10.23;;;4.28;;
66185;SDS011;58178;49.552;27.922;2022-10-31T18:44:18;11.63;;;4.45;;
66185;SDS011;58178;49.552;27.922;2022-10-31T18:46:44;14.30;;;4.53;;
66185;SDS011;58178;49.552;27.922;2022-10-31T18:49:10;11.32;;;4.00;;
66185;SDS011;58178;49.552;27.922;2022-10-31T18:51:39;10.63;;;4.80;;
66185;SDS011;58178;49.552;27.922;2022-10-31T18:54:05;16.95;;;4.65;;
66185;SDS011;58178;49.552;27.922;2022-10-31T18:56:31;10.60;;;4.10;;
66185;SDS011;58178;49.552;27.922;2022-10-31T18:58:59;9.35;;;4.30;;
66185;SDS011;58178;49.552;27.922;2022-10-31T19:01:28;12.23;;;5.13;;
66185;SDS011;58178;49.552;27.922;2022-10-31T19:03:58;13.45;;;4.53;;
66185;SDS011;58178;49.552;27.922;2022-10-31T19:06:27;7.65;;;4.60;;
66185;SDS011;58178;49.552;27.922;2022-10-31T19:08:58;7.03;;;4.15;;
66185;SDS011;58178;49.552;27.922;2022-10-31T19:11:30;13.48;;;4.82;;
66185;SDS011;58178;49.552;27.922;2022-10-31T19:14:03;10.77;;;4.80;;
66185;SDS011;58178;49.552;27.922;2022-10-31T19:16:29;10.82;;;4.40;;
66185;SDS011;58178;49.552;27.922;2022-10-31T19:18:58;13.45;;;6.20;;
66185;SDS011;58178;49.552;27.922;2022-10-31T19:21:25;10.18;;;4.57;;
66185;SDS011;58178;49.552;27.922;2022-10-31T19:24:00;13.65;;;4.38;;
66185;SDS011;58178;49.552;27.922;2022-10-31T19:26:31;10.65;;;4.65;;
66185;SDS011;58178;49.552;27.922;2022-10-31T19:28:57;12.13;;;4.97;;
66185;SDS011;58178;49.552;27.922;2022-10-31T19:31:23;10.93;;;4.95;;
66185;SDS011;58178;49.552;27.922;2022-10-31T19:33:49;12.60;;;5.00;;
66185;SDS011;58178;49.552;27.922;2022-10-31T19:36:16;13.18;;;5.10;;
66185;SDS011;58178;49.552;27.922;2022-10-31T19:38:43;11.82;;;4.93;;
66185;SDS011;58178;49.552;27.922;2022-10-31T19:41:11;12.02;;;4.93;;
66185;SDS011;58178;49.552;27.922;2022-10-31T19:43:37;15.40;;;4.35;;
66185;SDS011;58178;49.552;27.922;2022-10-31T19:46:07;18.52;;;4.07;;
66185;SDS011;58178;49.552;27.922;2022-10-31T19:48:36;11.20;;;4.30;;
66185;SDS011;58178;49.552;27.922;2022-10-31T19:51:10;12.30;;;4.07;;
66185;SDS011;58178;49.552;27.922;2022-10-31T19:53:40;9.90;;;4.05;;
66185;SDS011;58178;49.552;27.922;2022-10-31T19:56:14;11.07;;;4.68;;
66185;SDS011;58178;49.552;27.922;2022-10-31T19:58:54;11.07;;;4.05;;
66185;SDS011;58178;49.552;27.922;2022-10-31T20:01:26;12.35;;;3.60;;
66185;SDS011;58178;49.552;27.922;2022-10-31T20:03:52;10.98;;;4.03;;
66185;SDS011;58178;49.552;27.922;2022-10-31T20:06:23;11.77;;;3.17;;
66185;SDS011;58178;49.552;27.922;2022-10-31T20:08:55;11.00;;;3.88;;
66185;SDS011;58178;49.552;27.922;2022-10-31T20:11:45;9.85;;;3.10;;
66185;SDS011;58178;49.552;27.922;2022-10-31T20:14:14;7.88;;;3.30;;
66185;SDS011;58178;49.552;27.922;2022-10-31T20:16:41;13.73;;;3.72;;
66185;SDS011;58178;49.552;27.922;2022-10-31T20:19:27;13.85;;;4.35;;
66185;SDS011;58178;49.552;27.922;2022-10-31T20:21:56;9.73;;;3.58;;
66185;SDS011;58178;49.552;27.922;2022-10-31T20:24:21;16.70;;;4.20;;
66185;SDS011;58178;49.552;27.922;2022-10-31T20:27:04;7.03;;;3.13;;
66185;SDS011;58178;49.552;27.922;2022-10-31T20:29:30;9.98;;;3.08;;
66185;SDS011;58178;49.552;27.922;2022-10-31T20:32:29;8.13;;;3.78;;
66185;SDS011;58178;49.552;27.922;2022-10-31T20:34:56;8.35;;;3.60;;
66185;SDS011;58178;49.552;27.922;2022-10-31T20:37:21;7.32;;;2.97;;
66185;SDS011;58178;49.552;27.922;2022-10-31T20:39:52;10.10;;;3.47;;
66185;SDS011;58178;49.552;27.922;2022-10-31T20:42:26;9.45;;;2.92;;
66185;SDS011;58178;49.552;27.922;2022-10-31T20:44:57;8.30;;;3.40;;
66185;SDS011;58178;49.552;27.922;2022-10-31T20:47:22;7.55;;;3.40;;
66185;SDS011;58178;49.552;27.922;2022-10-31T20:49:48;14.68;;;3.45;;
66185;SDS011;58178;49.552;27.922;2022-10-31T20:52:14;11.18;;;3.72;;
66185;SDS011;58178;49.552;27.922;2022-10-31T20:54:40;15.82;;;3.72;;
66185;SDS011;58178;49.552;27.922;2022-10-31T20:57:06;10.40;;;4.05;;
66185;SDS011;58178;49.552;27.922;2022-10-31T20:59:31;11.48;;;3.30;;
66185;SDS011;58178;49.552;27.922;2022-10-31T21:01:57;8.13;;;3.05;;
66185;SDS011;58178;49.552;27.922;2022-10-31T21:04:23;9.95;;;3.25;;
66185;SDS011;58178;49.552;27.922;2022-10-31T21:06:48;6.97;;;2.92;;
66185;SDS011;58178;49.552;27.922;2022-10-31T21:09:14;12.10;;;3.13;;
66185;SDS011;58178;49.552;27.922;2022-10-31T21:11:40;9.63;;;3.25;;
66185;SDS011;58178;49.552;27.922;2022-10-31T21:14:05;10.48;;;3.00;;
66185;SDS011;58178;49.552;27.922;2022-10-31T21:16:31;9.15;;;2.80;;
66185;SDS011;58178;49.552;27.922;2022-10-31T21:19:00;10.63;;;3.13;;
66185;SDS011;58178;49.552;27.922;2022-10-31T21:21:28;10.82;;;3.13;;
66185;SDS011;58178;49.552;27.922;2022-10-31T21:24:00;9.75;;;3.65;;
66185;SDS011;58178;49.552;27.922;2022-10-31T21:26:31;8.27;;;2.92;;
66185;SDS011;58178;49.552;27.922;2022-10-31T21:28:59;12.20;;;3.83;;
66185;SDS011;58178;49.552;27.922;2022-10-31T21:31:27;11.93;;;3.30;;
66185;SDS011;58178;49.552;27.922;2022-10-31T21:33:53;15.75;;;3.35;;
66185;SDS011;58178;49.552;27.922;2022-10-31T21:36:19;10.82;;;3.05;;
66185;SDS011;58178;49.552;27.922;2022-10-31T21:38:48;9.05;;;3.30;;
66185;SDS011;58178;49.552;27.922;2022-10-31T21:41:15;11.98;;;3.58;;
66185;SDS011;58178;49.552;27.922;2022-10-31T21:43:45;8.63;;;2.97;;
66185;SDS011;58178;49.552;27.922;2022-10-31T21:46:18;9.82;;;3.30;;
66185;SDS011;58178;49.552;27.922;2022-10-31T21:48:45;11.63;;;3.20;;
66185;SDS011;58178;49.552;27.922;2022-10-31T21:51:15;12.85;;;3.70;;
66185;SDS011;58178;49.552;27.922;2022-10-31T21:53:45;10.15;;;3.67;;
66185;SDS011;58178;49.552;27.922;2022-10-31T21:56:30;10.80;;;3.58;;
66185;SDS011;58178;49.552;27.922;2022-10-31T21:58:56;11.77;;;3.38;;
66185;SDS011;58178;49.552;27.922;2022-10-31T22:01:23;12.85;;;4.18;;